createdAt,value
2023-01-31T00:03:29.738Z,99218.66
2023-01-31T00:08:52.847Z,99217.75
2023-01-31T00:14:20.266Z,99218.63
2023-01-31T00:19:42.263Z,99224.34
2023-01-31T00:25:04.927Z,99231.16
2023-01-31T00:30:26.909Z,99230.28
2023-01-31T00:35:48.828Z,99238.81
2023-01-31T00:41:11.146Z,99242.19
2023-01-31T00:46:33.477Z,99254.06
2023-01-31T00:51:55.357Z,99271.91
2023-01-31T00:57:17.278Z,99255.75
2023-01-31T01:02:39.147Z,99263.41
2023-01-31T01:08:00.995Z,99269.41
2023-01-31T01:13:22.867Z,99274.59
2023-01-31T01:18:45.231Z,99277.13
2023-01-31T01:24:14.223Z,99275.47
2023-01-31T01:29:36.419Z,99279.84
2023-01-31T01:34:58.299Z,99290.16
2023-01-31T01:40:20.342Z,99290.22
2023-01-31T01:45:42.310Z,99302.13
2023-01-31T01:51:06.170Z,99306.44
2023-01-31T01:56:34.235Z,99322.69
2023-01-31T02:01:57.002Z,99336.91
2023-01-31T02:07:19.459Z,99340.97
2023-01-31T02:12:41.427Z,99346.78
2023-01-31T02:18:03.498Z,99360.34
2023-01-31T02:23:48.485Z,99369.72
2023-01-31T02:29:16.333Z,99376.38
2023-01-31T02:34:59.587Z,99387.28
2023-01-31T02:40:43.307Z,99382.47
2023-01-31T02:46:11.428Z,99394.06
2023-01-31T02:51:44.143Z,99390.56
2023-01-31T02:57:06.082Z,99399.84
2023-01-31T03:02:28.801Z,99408.25
2023-01-31T03:07:55.151Z,99421.94
2023-01-31T03:13:16.941Z,99432.91
2023-01-31T03:18:44.392Z,99448.06
2023-01-31T03:24:07.971Z,99448.06
2023-01-31T03:29:36.276Z,99464.16
2023-01-31T03:34:58.528Z,99473.34
2023-01-31T03:40:31.900Z,99471.63
2023-01-31T03:46:07.402Z,99470.81
2023-01-31T03:51:33.752Z,99488.53
2023-01-31T03:57:00.201Z,99477.66
2023-01-31T04:02:25.216Z,99490.06
2023-01-31T04:07:47.255Z,99493.78
2023-01-31T04:13:09.522Z,99510.78
2023-01-31T04:18:31.405Z,99496.50
2023-01-31T04:23:53.287Z,99517.75
2023-01-31T04:29:15.285Z,99529.53
2023-01-31T04:34:37.162Z,99538.84
2023-01-31T04:39:59.142Z,99535.44
2023-01-31T04:45:21.444Z,99541.47
2023-01-31T04:50:43.649Z,99548.38
2023-01-31T04:56:05.774Z,99556.22
2023-01-31T05:01:27.780Z,99551.09
2023-01-31T05:06:49.645Z,99561.50
2023-01-31T05:12:11.588Z,99576.06
2023-01-31T05:17:34.201Z,99578.69
2023-01-31T05:22:56.054Z,99594.00
2023-01-31T05:28:18.086Z,99616.91
2023-01-31T05:33:40.226Z,99628.56
2023-01-31T05:39:02.132Z,99643.78
2023-01-31T05:44:24.225Z,99634.59
2023-01-31T05:49:46.060Z,99653.13
2023-01-31T05:55:08.423Z,99654.94
2023-01-31T06:00:30.933Z,99660.97
2023-01-31T06:05:53.481Z,99676.34
2023-01-31T06:11:15.610Z,99682.28
2023-01-31T06:16:37.477Z,99691.72
2023-01-31T06:21:59.940Z,99702.69
2023-01-31T06:27:21.779Z,99717.03
2023-01-31T06:32:43.633Z,99721.22
2023-01-31T06:38:06.880Z,99731.31
2023-01-31T06:43:28.754Z,99747.34
2023-01-31T06:48:50.604Z,99751.63
2023-01-31T06:54:12.443Z,99761.84
2023-01-31T06:59:34.365Z,99766.84
2023-01-31T07:04:56.636Z,99773.56
2023-01-31T07:10:18.544Z,99789.66
2023-01-31T07:15:40.467Z,99801.47
2023-01-31T07:21:02.364Z,99808.22
2023-01-31T07:26:24.243Z,99814.16
2023-01-31T07:31:46.179Z,99836.22
2023-01-31T07:37:08.060Z,99822.56
2023-01-31T07:42:29.949Z,99835.31
2023-01-31T07:47:52.636Z,99837.53
2023-01-31T07:53:14.530Z,99843.53
2023-01-31T07:58:37.376Z,99857.41
2023-01-31T08:04:02.834Z,99864.31
2023-01-31T08:09:33.135Z,99866.88
2023-01-31T08:14:54.954Z,99876.63
2023-01-31T08:20:17.196Z,99884.53
2023-01-31T08:25:39.047Z,99889.06
2023-01-31T08:31:08.599Z,99904.97
2023-01-31T08:36:31.526Z,99905.84
2023-01-31T08:41:53.518Z,99908.19
2023-01-31T08:47:15.384Z,99919.19
2023-01-31T08:52:37.178Z,99914.31
2023-01-31T08:58:00.582Z,99917.44
2023-01-31T09:03:22.473Z,99922.69
2023-01-31T09:08:44.535Z,99920.38
2023-01-31T09:14:06.757Z,99926.81
2023-01-31T09:19:28.630Z,99936.44
2023-01-31T09:24:50.476Z,99939.38
2023-01-31T09:30:12.628Z,99951.88
2023-01-31T09:35:34.492Z,99951.75
2023-01-31T09:40:58.891Z,99943.56
2023-01-31T09:46:25.940Z,99952.31
2023-01-31T09:51:53.723Z,99957.34
2023-01-31T09:57:27.554Z,99956.13
2023-01-31T10:03:24.621Z,99969.78
2023-01-31T10:09:03.011Z,99964.69
2023-01-31T10:14:41.866Z,99965.00
2023-01-31T10:20:32.776Z,99955.72
2023-01-31T10:25:59.813Z,99971.50
2023-01-31T10:31:32.778Z,99965.97
2023-01-31T10:37:05.324Z,99970.84
2023-01-31T10:42:36.823Z,99971.38
2023-01-31T10:48:11.098Z,99954.41
2023-01-31T10:53:54.255Z,99955.47
2023-01-31T10:59:31.139Z,99952.16
2023-01-31T11:04:56.238Z,99956.13
2023-01-31T11:10:30.109Z,99963.16
2023-01-31T11:15:54.367Z,99966.00
2023-01-31T11:21:26.050Z,99970.09
2023-01-31T11:27:09.261Z,99966.75
2023-01-31T11:32:35.556Z,99962.19
2023-01-31T11:38:20.214Z,99971.03
2023-01-31T11:43:42.559Z,99970.13
2023-01-31T11:49:12.434Z,99962.66
2023-01-31T11:54:34.930Z,99950.78
2023-01-31T11:59:59.071Z,99964.75
2023-01-31T12:05:36.563Z,99958.44
2023-01-31T12:10:59.221Z,99944.00
2023-01-31T12:16:26.531Z,99917.97
2023-01-31T12:22:05.708Z,99933.19
2023-01-31T12:27:33.608Z,99927.28
2023-01-31T12:33:27.673Z,99929.03
2023-01-31T12:38:58.425Z,99914.28
2023-01-31T12:44:43.739Z,99915.59
2023-01-31T12:50:29.929Z,99917.78
2023-01-31T12:56:00.940Z,99919.56
2023-01-31T13:01:42.606Z,99931.06
2023-01-31T13:07:10.491Z,99926.97
2023-01-31T13:12:35.142Z,99916.78
2023-01-31T13:18:03.161Z,99918.72
2023-01-31T13:23:31.171Z,99907.09
2023-01-31T13:29:01.787Z,99907.16
2023-01-31T13:34:39.744Z,99904.06
2023-01-31T13:40:18.776Z,99901.22
2023-01-31T13:45:48.252Z,99892.88
2023-01-31T13:51:22.768Z,99890.91
2023-01-31T13:56:50.784Z,99909.78
2023-01-31T14:02:20.119Z,99915.81
2023-01-31T14:07:41.946Z,99908.97
2023-01-31T14:13:24.713Z,99927.72
2023-01-31T14:18:46.667Z,99926.19
2023-01-31T14:24:20.016Z,99895.53
2023-01-31T14:29:43.791Z,99904.22
2023-01-31T14:35:14.461Z,99901.69
2023-01-31T14:40:54.304Z,99922.25
2023-01-31T14:46:55.150Z,99921.47
2023-01-31T14:52:19.824Z,99904.41
2023-01-31T14:57:45.245Z,99896.91
2023-01-31T15:03:28.172Z,99901.34
2023-01-31T15:08:59.129Z,99892.78
2023-01-31T15:14:48.008Z,99898.69
2023-01-31T15:20:18.112Z,99896.19
2023-01-31T15:25:44.706Z,99894.56
2023-01-31T15:31:36.551Z,99899.94
2023-01-31T15:37:13.784Z,99909.25
2023-01-31T15:42:35.621Z,99900.81
2023-01-31T15:48:11.353Z,99900.00
2023-01-31T15:53:33.380Z,99891.41
2023-01-31T15:58:57.544Z,99882.94
2023-01-31T16:04:19.447Z,99885.53
2023-01-31T16:09:41.443Z,99899.09
2023-01-31T16:15:07.340Z,99900.81
2023-01-31T16:20:39.852Z,99907.72
2023-01-31T16:26:08.728Z,99909.44
2023-01-31T16:31:34.692Z,99910.25
2023-01-31T16:37:01.385Z,99894.13
2023-01-31T16:42:24.823Z,99891.69
2023-01-31T16:47:48.808Z,99886.53
2023-01-31T16:53:30.156Z,99870.44
2023-01-31T16:58:56.354Z,99874.59
2023-01-31T17:04:21.189Z,99857.66
2023-01-31T17:09:43.172Z,99844.78
2023-01-31T17:15:14.771Z,99846.53
2023-01-31T17:20:37.161Z,99845.69
2023-01-31T17:25:59.013Z,99844.00
2023-01-31T17:31:24.522Z,99832.88
2023-01-31T17:36:46.376Z,99826.97
2023-01-31T17:42:17.821Z,99820.16
2023-01-31T17:47:39.732Z,99804.09
2023-01-31T17:53:01.640Z,99789.72
2023-01-31T17:58:24.574Z,99784.59
2023-01-31T18:03:46.521Z,99762.56
2023-01-31T18:09:08.493Z,99755.72
2023-01-31T18:14:30.456Z,99759.91
2023-01-31T18:19:52.306Z,99744.66
2023-01-31T18:25:14.288Z,99742.13
2023-01-31T18:30:36.177Z,99730.25
2023-01-31T18:35:59.495Z,99723.47
2023-01-31T18:41:21.516Z,99715.81
2023-01-31T18:46:43.447Z,99692.78
2023-01-31T18:52:06.181Z,99686.72
2023-01-31T18:57:28.095Z,99680.09
2023-01-31T19:02:54.563Z,99673.34
2023-01-31T19:08:16.289Z,99666.88
2023-01-31T19:13:38.433Z,99661.53
2023-01-31T19:19:00.336Z,99662.34
2023-01-31T19:24:22.266Z,99632.69
2023-01-31T19:29:44.185Z,99646.28
2023-01-31T19:35:06.601Z,99628.50
2023-01-31T19:40:28.516Z,99616.59
2023-01-31T19:45:50.447Z,99607.28
2023-01-31T19:51:18.266Z,99584.38
2023-01-31T19:56:40.278Z,99586.84
2023-01-31T20:02:02.129Z,99563.03
2023-01-31T20:07:24.075Z,99546.88
2023-01-31T20:12:46.236Z,99532.63
2023-01-31T20:18:08.112Z,99523.94
2023-01-31T20:23:30.237Z,99504.41
2023-01-31T20:28:52.218Z,99513.59
2023-01-31T20:34:14.103Z,99496.59
2023-01-31T20:39:36.002Z,99486.22
2023-01-31T20:44:57.936Z,99466.84
2023-01-31T20:50:20.054Z,99465.16
2023-01-31T20:55:42.261Z,99461.78
2023-01-31T21:01:06.504Z,99443.94
2023-01-31T21:06:28.696Z,99437.13
2023-01-31T21:11:50.691Z,99445.81
2023-01-31T21:17:12.566Z,99421.94
2023-01-31T21:22:34.812Z,99415.84
2023-01-31T21:27:56.717Z,99409.22
2023-01-31T21:33:18.598Z,99392.97
2023-01-31T21:38:41.449Z,99381.88
2023-01-31T21:44:04.145Z,99375.84
2023-01-31T21:49:26.310Z,99350.28
2023-01-31T21:54:48.144Z,99343.50
2023-01-31T22:00:11.574Z,99335.06
2023-01-31T22:05:33.428Z,99326.91
2023-01-31T22:11:21.542Z,99319.56
2023-01-31T22:16:44.244Z,99312.19
2023-01-31T22:22:06.136Z,99290.34
2023-01-31T22:27:27.986Z,99301.34
2023-01-31T22:32:49.840Z,99293.69
2023-01-31T22:38:11.711Z,99286.16
2023-01-31T22:43:36.945Z,99276.72
2023-01-31T22:48:58.847Z,99281.69
2023-01-31T22:54:20.707Z,99269.00
2023-01-31T22:59:42.601Z,99267.13
2023-01-31T23:05:04.730Z,99250.09
2023-01-31T23:10:27.354Z,99240.53
2023-01-31T23:15:49.254Z,99241.59
2023-01-31T23:21:18.259Z,99229.44
2023-01-31T23:26:40.403Z,99215.66
2023-01-31T23:32:02.346Z,99220.72
2023-01-31T23:37:24.434Z,99202.72
2023-01-31T23:42:46.448Z,99206.63
2023-01-31T23:48:08.374Z,99198.78
2023-01-31T23:53:30.319Z,99197.88
2023-01-31T23:58:53.531Z,99178.38
